sensor_id;sensor_type;location;lat;lon;timestamp;pressure;altitude;pressure_sealevel;temperature;humidity
59315;BME280;46521;50.160;20.802;2024-03-29T00:03:51;98041.25;;;9.30;67.95
59315;BME280;46521;50.160;20.802;2024-03-29T00:13:54;98110.21;;;8.78;69.60
59315;BME280;46521;50.160;20.802;2024-03-29T00:23:56;98144.41;;;8.15;70.05
59315;BME280;46521;50.160;20.802;2024-03-29T00:33:57;98202.22;;;7.65;70.17
59315;BME280;46521;50.160;20.802;2024-03-29T00:43:59;98235.17;;;7.31;70.93
59315;BME280;46521;50.160;20.802;2024-03-29T00:54:01;98267.16;;;7.05;70.78
59315;BME280;46521;50.160;20.802;2024-03-29T01:04:02;98311.02;;;6.90;71.04
59315;BME280;46521;50.160;20.802;2024-03-29T01:14:05;98350.27;;;6.91;71.28
59315;BME280;46521;50.160;20.802;2024-03-29T01:24:07;98377.53;;;6.90;72.26
59315;BME280;46521;50.160;20.802;2024-03-29T01:34:08;98419.23;;;6.93;71.66
59315;BME280;46521;50.160;20.802;2024-03-29T01:44:10;98417.88;;;6.97;71.34
59315;BME280;46521;50.160;20.802;2024-03-29T01:54:12;98449.91;;;7.01;71.78
59315;BME280;46521;50.160;20.802;2024-03-29T02:04:14;98467.13;;;7.03;72.58
59315;BME280;46521;50.160;20.802;2024-03-29T02:14:16;98493.73;;;7.09;71.69
59315;BME280;46521;50.160;20.802;2024-03-29T02:24:17;98528.89;;;7.08;72.41
59315;BME280;46521;50.160;20.802;2024-03-29T02:34:19;98552.61;;;6.99;72.50
59315;BME280;46521;50.160;20.802;2024-03-29T02:44:20;98565.47;;;6.86;72.44
59315;BME280;46521;50.160;20.802;2024-03-29T02:54:22;98586.39;;;6.71;72.86
59315;BME280;46521;50.160;20.802;2024-03-29T03:04:24;98618.27;;;6.68;73.52
59315;BME280;46521;50.160;20.802;2024-03-29T03:14:26;98627.30;;;6.65;73.32
59315;BME280;46521;50.160;20.802;2024-03-29T03:24:27;98642.41;;;6.63;73.39
59315;BME280;46521;50.160;20.802;2024-03-29T03:34:29;98658.17;;;6.63;73.69
59315;BME280;46521;50.160;20.802;2024-03-29T03:44:31;98700.22;;;6.63;73.66
59315;BME280;46521;50.160;20.802;2024-03-29T03:54:32;98710.58;;;6.57;73.15
59315;BME280;46521;50.160;20.802;2024-03-29T04:04:35;98733.71;;;6.45;73.48
59315;BME280;46521;50.160;20.802;2024-03-29T04:14:37;98753.72;;;6.38;73.50
59315;BME280;46521;50.160;20.802;2024-03-29T04:24:38;98739.10;;;6.27;73.01
59315;BME280;46521;50.160;20.802;2024-03-29T04:34:40;98756.34;;;6.21;73.28
59315;BME280;46521;50.160;20.802;2024-03-29T04:44:42;98779.81;;;6.15;73.09
59315;BME280;46521;50.160;20.802;2024-03-29T04:54:43;98771.77;;;6.16;72.84
59315;BME280;46521;50.160;20.802;2024-03-29T05:04:45;98791.29;;;6.22;72.88
59315;BME280;46521;50.160;20.802;2024-03-29T05:14:46;98814.45;;;6.35;72.86
59315;BME280;46521;50.160;20.802;2024-03-29T05:24:53;98832.06;;;6.51;72.94
59315;BME280;46521;50.160;20.802;2024-03-29T05:34:58;98836.18;;;6.86;72.77
59315;BME280;46521;50.160;20.802;2024-03-29T05:45:00;98859.83;;;7.35;72.69
59315;BME280;46521;50.160;20.802;2024-03-29T05:55:01;98849.75;;;8.03;72.15
59315;BME280;46521;50.160;20.802;2024-03-29T06:05:08;98877.47;;;8.85;71.35
59315;BME280;46521;50.160;20.802;2024-03-29T06:15:10;98902.14;;;9.68;70.47
59315;BME280;46521;50.160;20.802;2024-03-29T06:25:29;98901.24;;;10.36;69.08
59315;BME280;46521;50.160;20.802;2024-03-29T06:35:31;98894.91;;;10.88;69.17
59315;BME280;46521;50.160;20.802;2024-03-29T06:45:33;98907.99;;;11.40;68.16
59315;BME280;46521;50.160;20.802;2024-03-29T06:55:35;98900.89;;;11.75;66.30
59315;BME280;46521;50.160;20.802;2024-03-29T07:05:38;98912.39;;;12.24;65.29
59315;BME280;46521;50.160;20.802;2024-03-29T07:15:39;98897.50;;;12.85;64.56
59315;BME280;46521;50.160;20.802;2024-03-29T07:25:44;98891.03;;;13.47;62.95
59315;BME280;46521;50.160;20.802;2024-03-29T07:35:47;98901.62;;;13.87;62.12
59315;BME280;46521;50.160;20.802;2024-03-29T07:45:49;98885.91;;;14.38;60.99
59315;BME280;46521;50.160;20.802;2024-03-29T07:55:50;98881.91;;;14.67;60.71
59315;BME280;46521;50.160;20.802;2024-03-29T08:05:59;98891.31;;;15.02;59.60
59315;BME280;46521;50.160;20.802;2024-03-29T08:16:01;98898.39;;;15.40;57.42
59315;BME280;46521;50.160;20.802;2024-03-29T08:26:03;98885.41;;;15.68;56.87
59315;BME280;46521;50.160;20.802;2024-03-29T08:36:06;98920.15;;;16.06;55.80
59315;BME280;46521;50.160;20.802;2024-03-29T08:46:07;98925.19;;;16.14;55.34
59315;BME280;46521;50.160;20.802;2024-03-29T08:56:10;98939.55;;;16.31;53.45
59315;BME280;46521;50.160;20.802;2024-03-29T09:06:11;98942.53;;;16.42;52.72
59315;BME280;46521;50.160;20.802;2024-03-29T09:16:13;98941.06;;;16.95;52.36
59315;BME280;46521;50.160;20.802;2024-03-29T09:26:15;98961.14;;;16.97;51.87
59315;BME280;46521;50.160;20.802;2024-03-29T09:36:17;98959.00;;;17.18;51.29
59315;BME280;46521;50.160;20.802;2024-03-29T09:46:18;98968.66;;;17.19;50.68
59315;BME280;46521;50.160;20.802;2024-03-29T09:56:20;98964.08;;;17.50;49.84
59315;BME280;46521;50.160;20.802;2024-03-29T10:06:24;98959.95;;;17.89;49.02
59315;BME280;46521;50.160;20.802;2024-03-29T10:16:26;98941.56;;;18.05;48.27
59315;BME280;46521;50.160;20.802;2024-03-29T10:26:27;98949.23;;;18.25;47.09
59315;BME280;46521;50.160;20.802;2024-03-29T10:36:30;98948.29;;;18.31;46.64
59315;BME280;46521;50.160;20.802;2024-03-29T10:46:37;98943.34;;;18.51;45.60
59315;BME280;46521;50.160;20.802;2024-03-29T10:56:40;98924.52;;;18.75;45.33
59315;BME280;46521;50.160;20.802;2024-03-29T11:06:47;98913.28;;;18.90;44.32
59315;BME280;46521;50.160;20.802;2024-03-29T11:16:50;98908.85;;;18.84;43.97
59315;BME280;46521;50.160;20.802;2024-03-29T11:26:57;98879.79;;;19.04;43.46
59315;BME280;46521;50.160;20.802;2024-03-29T11:37:09;98851.68;;;19.24;43.18
59315;BME280;46521;50.160;20.802;2024-03-29T11:47:13;98841.99;;;19.40;42.11
59315;BME280;46521;50.160;20.802;2024-03-29T11:57:17;98824.30;;;19.39;41.80
59315;BME280;46521;50.160;20.802;2024-03-29T12:07:18;98814.26;;;19.51;41.86
59315;BME280;46521;50.160;20.802;2024-03-29T12:17:20;98807.84;;;19.52;40.64
59315;BME280;46521;50.160;20.802;2024-03-29T12:27:21;98789.63;;;19.54;40.55
59315;BME280;46521;50.160;20.802;2024-03-29T12:37:25;98795.12;;;19.42;40.04
59315;BME280;46521;50.160;20.802;2024-03-29T12:47:30;98767.50;;;19.42;39.71
59315;BME280;46521;50.160;20.802;2024-03-29T12:57:32;98754.00;;;19.37;39.43
59315;BME280;46521;50.160;20.802;2024-03-29T13:07:33;98742.23;;;19.38;39.35
59315;BME280;46521;50.160;20.802;2024-03-29T13:17:35;98742.98;;;19.33;38.87
59315;BME280;46521;50.160;20.802;2024-03-29T13:27:41;98744.55;;;19.12;38.47
59315;BME280;46521;50.160;20.802;2024-03-29T13:37:44;98718.77;;;19.06;38.63
59315;BME280;46521;50.160;20.802;2024-03-29T13:47:48;98716.14;;;19.11;38.46
59315;BME280;46521;50.160;20.802;2024-03-29T13:57:50;98723.63;;;19.09;38.14
59315;BME280;46521;50.160;20.802;2024-03-29T14:07:51;98718.27;;;19.09;38.02
59315;BME280;46521;50.160;20.802;2024-03-29T14:17:53;98727.05;;;19.04;37.80
59315;BME280;46521;50.160;20.802;2024-03-29T14:27:55;98720.48;;;18.95;37.57
59315;BME280;46521;50.160;20.802;2024-03-29T14:37:58;98725.89;;;18.83;37.38
59315;BME280;46521;50.160;20.802;2024-03-29T14:48:01;98728.81;;;18.82;37.83
59315;BME280;46521;50.160;20.802;2024-03-29T14:58:03;98719.38;;;18.79;37.17
59315;BME280;46521;50.160;20.802;2024-03-29T15:08:05;98717.78;;;18.78;37.55
59315;BME280;46521;50.160;20.802;2024-03-29T15:18:07;98716.98;;;18.61;37.93
59315;BME280;46521;50.160;20.802;2024-03-29T15:28:08;98726.88;;;18.43;37.70
59315;BME280;46521;50.160;20.802;2024-03-29T15:38:13;98729.77;;;18.25;39.00
59315;BME280;46521;50.160;20.802;2024-03-29T15:48:22;98719.50;;;18.05;38.59
59315;BME280;46521;50.160;20.802;2024-03-29T15:58:24;98721.08;;;17.89;38.94
59315;BME280;46521;50.160;20.802;2024-03-29T16:08:25;98725.70;;;17.41;39.74
59315;BME280;46521;50.160;20.802;2024-03-29T16:18:29;98722.52;;;16.91;39.43
59315;BME280;46521;50.160;20.802;2024-03-29T16:28:30;98718.86;;;16.62;40.07
59315;BME280;46521;50.160;20.802;2024-03-29T16:38:32;98729.95;;;16.35;40.34
59315;BME280;46521;50.160;20.802;2024-03-29T16:48:35;98736.05;;;15.94;41.19
59315;BME280;46521;50.160;20.802;2024-03-29T16:58:37;98733.47;;;15.68;41.87
59315;BME280;46521;50.160;20.802;2024-03-29T17:08:38;98739.64;;;15.32;42.38
59315;BME280;46521;50.160;20.802;2024-03-29T17:18:40;98757.74;;;15.05;43.18
59315;BME280;46521;50.160;20.802;2024-03-29T17:28:41;98753.98;;;14.87;43.52
59315;BME280;46521;50.160;20.802;2024-03-29T17:38:43;98760.53;;;14.59;44.42
59315;BME280;46521;50.160;20.802;2024-03-29T17:48:44;98768.13;;;14.24;45.38
59315;BME280;46521;50.160;20.802;2024-03-29T17:58:46;98782.56;;;14.03;45.94
59315;BME280;46521;50.160;20.802;2024-03-29T18:08:48;98793.24;;;13.90;46.85
59315;BME280;46521;50.160;20.802;2024-03-29T18:18:49;98808.44;;;13.69;46.84
59315;BME280;46521;50.160;20.802;2024-03-29T18:28:51;98811.75;;;13.58;47.20
59315;BME280;46521;50.160;20.802;2024-03-29T18:38:52;98809.92;;;13.51;47.68
59315;BME280;46521;50.160;20.802;2024-03-29T18:48:54;98808.07;;;13.32;48.36
59315;BME280;46521;50.160;20.802;2024-03-29T18:58:55;98808.31;;;13.17;48.96
59315;BME280;46521;50.160;20.802;2024-03-29T19:08:57;98804.43;;;13.06;49.10
59315;BME280;46521;50.160;20.802;2024-03-29T19:18:59;98798.30;;;12.99;49.54
59315;BME280;46521;50.160;20.802;2024-03-29T19:29:00;98803.62;;;12.86;50.25
59315;BME280;46521;50.160;20.802;2024-03-29T19:39:02;98801.55;;;12.61;50.95
59315;BME280;46521;50.160;20.802;2024-03-29T19:49:10;98802.34;;;12.41;51.13
59315;BME280;46521;50.160;20.802;2024-03-29T19:59:12;98797.23;;;12.40;51.75
59315;BME280;46521;50.160;20.802;2024-03-29T20:09:13;98803.95;;;12.42;52.20
59315;BME280;46521;50.160;20.802;2024-03-29T20:19:15;98801.90;;;12.31;52.46
59315;BME280;46521;50.160;20.802;2024-03-29T20:29:16;98793.34;;;12.29;53.32
59315;BME280;46521;50.160;20.802;2024-03-29T20:39:18;98791.88;;;12.20;53.32
59315;BME280;46521;50.160;20.802;2024-03-29T20:49:21;98799.82;;;12.13;53.93
59315;BME280;46521;50.160;20.802;2024-03-29T20:59:23;98794.92;;;12.10;54.33
59315;BME280;46521;50.160;20.802;2024-03-29T21:09:24;98789.36;;;11.98;54.52
59315;BME280;46521;50.160;20.802;2024-03-29T21:19:27;98790.52;;;11.89;54.99
59315;BME280;46521;50.160;20.802;2024-03-29T21:29:28;98798.03;;;11.79;55.92
59315;BME280;46521;50.160;20.802;2024-03-29T21:39:30;98785.39;;;11.81;56.67
59315;BME280;46521;50.160;20.802;2024-03-29T21:49:32;98784.61;;;11.87;57.05
59315;BME280;46521;50.160;20.802;2024-03-29T21:59:34;98785.46;;;11.94;57.12
59315;BME280;46521;50.160;20.802;2024-03-29T22:09:35;98778.97;;;12.03;57.20
59315;BME280;46521;50.160;20.802;2024-03-29T22:19:37;98779.17;;;12.02;57.59
59315;BME280;46521;50.160;20.802;2024-03-29T22:29:39;98771.01;;;11.97;58.05
59315;BME280;46521;50.160;20.802;2024-03-29T22:39:41;98779.28;;;11.80;58.26
59315;BME280;46521;50.160;20.802;2024-03-29T22:49:42;98772.27;;;11.66;58.29
59315;BME280;46521;50.160;20.802;2024-03-29T22:59:44;98773.44;;;11.57;59.17
59315;BME280;46521;50.160;20.802;2024-03-29T23:09:45;98774.45;;;11.49;59.54
59315;BME280;46521;50.160;20.802;2024-03-29T23:19:51;98770.58;;;11.51;60.06
59315;BME280;46521;50.160;20.802;2024-03-29T23:29:54;98764.47;;;11.51;60.72
59315;BME280;46521;50.160;20.802;2024-03-29T23:40:01;98745.91;;;11.44;60.57
59315;BME280;46521;50.160;20.802;2024-03-29T23:50:05;98767.48;;;11.41;60.25
